Terminal Aerodrome Forecast
Issued by NWS

Home | Current Version | Previous Version | Text Only | Print | Product List | Glossary On
Versions: 1 2 3 4 5 6 7 8 9 10 11 12 13
000
FTUS44 KTSA 311700
TAFBVO
TAF
KBVO 311725Z 3118/0118 16007KT P6SM -RA OVC070
     FM010000 16007KT 5SM -RA OVC030
     FM010300 16005KT 3SM RA BR OVC015
     FM010800 VRB05KT 2SM -RA BR OVC007
     FM011200 29008KT 4SM BR OVC007
     FM011500 32011KT 5SM BR OVC015=

USA.gov is the U.S. government's official web portal to all federal, state and local government web resources and services.